createdAt,value
2022-08-26T00:00:03.105Z,20.90
2022-08-26T00:02:09.250Z,20.90
2022-08-26T00:04:13.543Z,20.90
2022-08-26T00:08:33.999Z,21.00
2022-08-26T00:10:37.686Z,21.00
2022-08-26T00:12:41.699Z,20.90
2022-08-26T00:14:45.561Z,20.80
2022-08-26T00:16:49.282Z,20.80
2022-08-26T00:18:52.913Z,20.60
2022-08-26T00:20:56.578Z,20.60
2022-08-26T00:23:00.356Z,20.60
2022-08-26T00:25:04.500Z,20.70
2022-08-26T00:29:24.728Z,20.70
2022-08-26T00:31:28.250Z,20.70
2022-08-26T00:33:33.799Z,20.70
2022-08-26T00:35:37.361Z,20.60
2022-08-26T00:37:43.324Z,20.60
2022-08-26T00:39:47.182Z,20.50
2022-08-26T00:44:08.412Z,20.60
2022-08-26T00:48:33.170Z,20.70
2022-08-26T00:50:40.837Z,20.70
2022-08-26T00:52:45.915Z,20.60
2022-08-26T00:54:55.312Z,20.50
2022-08-26T00:57:02.395Z,20.50
2022-08-26T00:59:10.878Z,20.40
2022-08-26T01:01:16.345Z,20.40
2022-08-26T01:03:22.763Z,20.40
2022-08-26T01:05:26.891Z,20.40
2022-08-26T01:07:31.911Z,20.30
2022-08-26T01:09:37.707Z,20.30
2022-08-26T01:11:43.430Z,20.20
2022-08-26T01:13:47.374Z,20.30
2022-08-26T01:15:54.615Z,20.20
2022-08-26T01:17:58.529Z,20.30
2022-08-26T01:20:08.780Z,20.40
2022-08-26T01:22:16.444Z,20.40
2022-08-26T01:26:40.867Z,20.40
2022-08-26T01:28:44.546Z,20.40
2022-08-26T01:30:52.667Z,20.40
2022-08-26T01:32:57.401Z,20.40
2022-08-26T01:35:01.964Z,20.40
2022-08-26T01:37:09.207Z,20.30
2022-08-26T01:39:14.563Z,20.30
2022-08-26T01:41:19.898Z,20.20
2022-08-26T01:45:43.895Z,20.20
2022-08-26T01:47:49.733Z,20.30
2022-08-26T01:49:56.383Z,20.20
2022-08-26T01:52:00.481Z,20.10
2022-08-26T01:54:04.583Z,19.90
2022-08-26T01:56:10.463Z,19.90
2022-08-26T01:58:18.156Z,19.90
2022-08-26T02:02:39.439Z,19.70
2022-08-26T02:07:02.132Z,19.90
2022-08-26T02:09:06.799Z,19.90
2022-08-26T02:11:10.910Z,19.90
2022-08-26T02:13:14.414Z,19.80
2022-08-26T02:17:39.467Z,19.90
2022-08-26T02:19:47.291Z,19.90
2022-08-26T02:21:52.592Z,19.90
2022-08-26T02:23:56.576Z,19.80
2022-08-26T02:26:05.066Z,19.70
2022-08-26T02:28:10.300Z,19.80
2022-08-26T02:30:17.490Z,19.70
2022-08-26T02:34:38.787Z,19.80
2022-08-26T02:36:42.878Z,19.80
2022-08-26T02:38:46.498Z,19.80
2022-08-26T02:40:51.376Z,19.80
2022-08-26T02:42:57.007Z,19.90
2022-08-26T02:45:00.796Z,19.80
2022-08-26T02:47:04.617Z,19.70
2022-08-26T02:49:09.161Z,19.70
2022-08-26T02:53:31.751Z,19.60
2022-08-26T02:57:51.536Z,19.50
2022-08-26T02:59:55.236Z,19.50
2022-08-26T03:01:58.810Z,19.40
2022-08-26T03:04:04.981Z,19.30
2022-08-26T03:06:09.219Z,19.30
2022-08-26T03:08:21.879Z,19.20
2022-08-26T03:10:26.454Z,19.10
2022-08-26T03:12:30.332Z,19.10
2022-08-26T03:14:34.296Z,19.10
2022-08-26T03:16:39.332Z,19.10
2022-08-26T03:18:43.492Z,19.10
2022-08-26T03:20:50.281Z,19.20
2022-08-26T03:23:16.015Z,19.20
2022-08-26T03:25:44.482Z,19.20
2022-08-26T03:27:48.534Z,19.20
2022-08-26T03:30:11.656Z,19.10
2022-08-26T03:32:16.371Z,19.10
2022-08-26T03:34:20.047Z,19.00
2022-08-26T03:36:25.413Z,18.90
2022-08-26T03:40:48.983Z,18.80
2022-08-26T03:42:54.184Z,18.70
2022-08-26T03:44:57.715Z,18.80
2022-08-26T03:47:01.265Z,18.70
2022-08-26T03:49:05.808Z,18.60
2022-08-26T03:51:13.822Z,18.60
2022-08-26T03:53:20.504Z,18.60
2022-08-26T03:55:26.968Z,18.70
2022-08-26T03:59:48.903Z,18.80
2022-08-26T04:01:52.539Z,18.80
2022-08-26T04:04:00.237Z,18.90
2022-08-26T04:06:04.754Z,19.00
2022-08-26T04:08:08.448Z,19.10
2022-08-26T04:10:16.216Z,19.20
2022-08-26T04:12:21.711Z,19.20
2022-08-26T04:14:27.239Z,19.30
2022-08-26T04:18:48.608Z,19.50
2022-08-26T04:20:52.412Z,19.50
2022-08-26T04:22:55.971Z,19.50
2022-08-26T04:25:00.596Z,19.50
2022-08-26T04:27:04.370Z,19.60
2022-08-26T04:29:10.592Z,19.60
2022-08-26T04:31:15.446Z,19.60
2022-08-26T04:33:19.094Z,19.60
2022-08-26T04:35:26.147Z,19.60
2022-08-26T04:37:30.872Z,19.70
2022-08-26T04:41:55.051Z,19.70
2022-08-26T04:43:58.521Z,19.60
2022-08-26T04:46:04.673Z,19.70
2022-08-26T04:48:08.309Z,19.70
2022-08-26T04:50:14.615Z,19.70
2022-08-26T04:52:19.593Z,19.70
2022-08-26T04:54:23.459Z,19.60
2022-08-26T04:56:30.852Z,19.60
2022-08-26T05:00:52.779Z,19.60
2022-08-26T05:02:57.357Z,19.60
2022-08-26T05:05:00.945Z,19.50
2022-08-26T05:07:05.591Z,19.50
2022-08-26T05:09:10.055Z,19.40
2022-08-26T05:11:13.598Z,19.40
2022-08-26T05:13:19.014Z,19.40
2022-08-26T05:15:24.149Z,19.50
2022-08-26T05:17:27.744Z,19.50
2022-08-26T05:19:31.431Z,19.50
2022-08-26T05:23:55.962Z,19.50
2022-08-26T05:26:00.831Z,19.50
2022-08-26T05:28:04.887Z,19.50
2022-08-26T05:30:11.207Z,19.50
2022-08-26T05:32:14.782Z,19.60
2022-08-26T05:34:18.260Z,19.60
2022-08-26T05:36:24.483Z,19.60
2022-08-26T05:38:30.720Z,19.60
2022-08-26T05:40:36.288Z,19.60
2022-08-26T05:44:57.067Z,19.60
2022-08-26T05:47:00.688Z,19.60
2022-08-26T05:49:06.183Z,19.60
2022-08-26T05:51:12.477Z,19.70
2022-08-26T05:53:18.183Z,19.60
2022-08-26T05:55:22.091Z,19.70
2022-08-26T05:57:25.701Z,19.70
2022-08-26T05:59:29.340Z,19.70
2022-08-26T06:01:35.742Z,19.80
2022-08-26T06:03:41.396Z,19.80
2022-08-26T06:08:13.272Z,19.70
2022-08-26T06:10:33.123Z,19.70
2022-08-26T06:12:22.667Z,19.60
2022-08-26T06:14:26.322Z,19.70
2022-08-26T06:16:31.565Z,19.70
2022-08-26T06:20:57.252Z,19.80
2022-08-26T06:23:17.445Z,19.70
2022-08-26T06:25:38.904Z,19.80
2022-08-26T06:27:42.440Z,19.80
2022-08-26T06:29:46.548Z,19.80
2022-08-26T06:31:50.112Z,19.80
2022-08-26T06:33:56.133Z,19.90
2022-08-26T06:36:00.506Z,19.80
2022-08-26T06:38:04.400Z,19.90
2022-08-26T06:42:26.892Z,19.90
2022-08-26T06:44:30.955Z,19.90
2022-08-26T06:46:36.070Z,19.90
2022-08-26T06:48:39.643Z,19.90
2022-08-26T06:50:44.040Z,20.00
2022-08-26T06:52:47.531Z,20.10
2022-08-26T06:54:52.015Z,20.00
2022-08-26T06:56:57.105Z,20.10
2022-08-26T06:59:00.679Z,20.10
2022-08-26T07:01:11.397Z,20.10
2022-08-26T07:03:10.745Z,20.10
2022-08-26T07:05:14.656Z,20.20
2022-08-26T07:07:18.227Z,20.20
2022-08-26T07:09:26.056Z,20.20
2022-08-26T07:11:29.857Z,20.20
2022-08-26T07:13:37.031Z,20.30
2022-08-26T07:15:41.901Z,20.30
2022-08-26T07:17:45.513Z,20.30
2022-08-26T07:19:49.162Z,20.40
2022-08-26T07:21:53.801Z,20.40
2022-08-26T07:24:01.477Z,20.40
2022-08-26T07:26:06.592Z,20.50
2022-08-26T07:28:10.076Z,20.50
2022-08-26T07:30:15.186Z,20.40
2022-08-26T07:32:20.489Z,20.40
2022-08-26T07:34:26.121Z,20.50
2022-08-26T07:36:29.984Z,20.50
2022-08-26T07:38:35.015Z,20.50
2022-08-26T07:40:38.791Z,20.60
2022-08-26T07:42:42.489Z,20.60
2022-08-26T07:44:46.965Z,20.60
2022-08-26T07:46:52.452Z,20.60
2022-08-26T07:48:56.230Z,20.70
2022-08-26T07:51:00.303Z,20.70
2022-08-26T07:53:04.201Z,20.80
2022-08-26T07:55:09.728Z,20.80
2022-08-26T07:57:13.342Z,20.80
2022-08-26T07:59:17.644Z,20.80
2022-08-26T08:01:22.898Z,20.90
2022-08-26T08:03:26.476Z,20.90
2022-08-26T08:05:33.762Z,20.90
2022-08-26T08:07:38.521Z,20.90
2022-08-26T08:09:43.175Z,20.90
2022-08-26T08:11:46.760Z,20.90
2022-08-26T08:13:56.281Z,21.00
2022-08-26T08:15:57.724Z,21.00
2022-08-26T08:18:01.820Z,21.00
2022-08-26T08:20:09.673Z,21.00
2022-08-26T08:22:17.367Z,21.10
2022-08-26T08:24:21.872Z,21.10
2022-08-26T08:26:25.840Z,21.20
2022-08-26T08:28:28.537Z,21.20
2022-08-26T08:30:31.218Z,21.30
2022-08-26T08:32:37.654Z,21.20
2022-08-26T08:36:42.878Z,21.40
2022-08-26T08:38:46.461Z,21.40
2022-08-26T08:40:49.512Z,21.50
2022-08-26T08:42:55.044Z,21.50
2022-08-26T08:44:59.471Z,21.60
2022-08-26T08:47:07.286Z,21.60
2022-08-26T08:49:10.319Z,21.70
2022-08-26T08:51:16.292Z,21.70
2022-08-26T08:53:22.082Z,21.80
2022-08-26T08:55:26.826Z,21.80
2022-08-26T08:57:33.586Z,21.80
2022-08-26T08:59:39.258Z,21.80
2022-08-26T09:01:59.032Z,21.90
2022-08-26T09:04:03.730Z,21.90
2022-08-26T09:06:09.638Z,21.90
2022-08-26T09:08:14.443Z,21.90
2022-08-26T09:10:29.354Z,22.00
2022-08-26T09:14:49.335Z,22.00
2022-08-26T09:16:59.269Z,22.00
2022-08-26T09:19:10.465Z,22.10
2022-08-26T09:21:14.389Z,22.10
2022-08-26T09:23:17.201Z,22.10
2022-08-26T09:25:20.897Z,22.10
2022-08-26T09:27:40.509Z,22.00
2022-08-26T09:29:44.209Z,22.00
2022-08-26T09:31:47.253Z,22.00
2022-08-26T09:33:51.726Z,22.10
2022-08-26T09:35:56.798Z,22.10
2022-08-26T09:37:59.738Z,22.20
2022-08-26T09:40:13.138Z,22.20
2022-08-26T09:42:19.474Z,22.20
2022-08-26T09:44:22.535Z,22.30
2022-08-26T09:46:27.309Z,22.30
2022-08-26T09:48:32.342Z,22.30
2022-08-26T09:50:37.507Z,22.30
2022-08-26T09:52:42.647Z,22.40
2022-08-26T09:55:15.640Z,22.40
2022-08-26T09:57:24.024Z,22.50
2022-08-26T09:59:32.404Z,22.50
2022-08-26T10:03:53.981Z,22.60
2022-08-26T10:05:58.855Z,22.70
2022-08-26T10:08:03.646Z,22.80
2022-08-26T10:10:08.682Z,22.90
2022-08-26T10:12:14.727Z,22.90
2022-08-26T10:14:20.238Z,23.00
2022-08-26T10:16:28.623Z,22.90
2022-08-26T10:18:34.216Z,23.00
2022-08-26T10:20:37.586Z,23.10
2022-08-26T10:22:42.645Z,23.10
2022-08-26T10:24:48.994Z,23.10
2022-08-26T10:26:54.306Z,23.10
2022-08-26T10:29:00.577Z,23.10
2022-08-26T10:31:05.865Z,23.20
2022-08-26T10:33:09.483Z,23.20
2022-08-26T10:35:13.838Z,23.30
2022-08-26T10:37:18.222Z,23.30
2022-08-26T10:39:22.801Z,23.30
2022-08-26T10:41:27.957Z,23.30
2022-08-26T10:43:33.563Z,23.40
2022-08-26T10:45:38.174Z,23.40
2022-08-26T10:47:42.757Z,23.40
2022-08-26T10:49:47.479Z,23.40
2022-08-26T10:51:53.370Z,23.40
2022-08-26T10:53:58.114Z,23.40
2022-08-26T10:56:03.482Z,23.40
2022-08-26T10:58:09.953Z,23.30
2022-08-26T11:00:33.565Z,23.30
2022-08-26T11:02:37.994Z,23.30
2022-08-26T11:04:47.532Z,23.40
2022-08-26T11:06:47.417Z,23.50
2022-08-26T11:08:51.806Z,23.50
2022-08-26T11:10:56.229Z,23.50
2022-08-26T11:13:02.969Z,23.60
2022-08-26T11:15:06.578Z,23.50
2022-08-26T11:17:11.305Z,23.60
2022-08-26T11:19:19.614Z,23.50
2022-08-26T11:21:52.326Z,23.50
2022-08-26T11:23:54.885Z,23.50
2022-08-26T11:26:13.343Z,23.50
2022-08-26T11:28:31.292Z,23.60
2022-08-26T11:30:44.680Z,23.60
2022-08-26T11:32:49.851Z,23.50
2022-08-26T11:34:56.397Z,23.60
2022-08-26T11:37:00.447Z,23.60
2022-08-26T11:39:04.012Z,23.60
2022-08-26T11:41:10.869Z,23.60
2022-08-26T11:43:17.925Z,23.70
2022-08-26T11:45:22.780Z,23.60
2022-08-26T11:47:28.798Z,23.60
2022-08-26T11:49:33.339Z,23.50
2022-08-26T11:53:51.530Z,23.60
2022-08-26T11:55:55.650Z,23.70
2022-08-26T11:58:00.322Z,23.80
2022-08-26T12:00:05.134Z,23.70
2022-08-26T12:02:12.867Z,23.70
2022-08-26T12:04:19.445Z,23.70
2022-08-26T12:06:24.540Z,23.70
2022-08-26T12:08:28.628Z,23.70
2022-08-26T12:10:33.114Z,23.90
2022-08-26T12:12:38.050Z,24.00
2022-08-26T12:14:41.108Z,24.10
2022-08-26T12:16:43.977Z,24.20
2022-08-26T12:18:46.828Z,24.30
2022-08-26T12:20:51.338Z,24.30
2022-08-26T12:22:54.206Z,24.30
2022-08-26T12:24:58.042Z,24.20
2022-08-26T12:27:08.064Z,24.20
2022-08-26T12:29:20.219Z,24.20
2022-08-26T12:31:21.914Z,24.20
2022-08-26T12:33:25.470Z,24.20
2022-08-26T12:35:28.172Z,24.20
2022-08-26T12:37:32.650Z,24.30
2022-08-26T12:39:38.035Z,24.40
2022-08-26T12:41:45.896Z,24.30
2022-08-26T12:43:48.566Z,24.30
2022-08-26T12:45:56.283Z,24.40
2022-08-26T12:48:00.666Z,24.40
2022-08-26T12:50:05.659Z,24.40
2022-08-26T12:52:11.942Z,24.30
2022-08-26T12:55:00.489Z,24.20
2022-08-26T12:59:26.307Z,24.20
2022-08-26T13:01:30.980Z,24.10
2022-08-26T13:03:43.250Z,24.00
2022-08-26T13:05:46.066Z,24.00
2022-08-26T13:08:07.800Z,24.00
2022-08-26T13:10:12.183Z,24.00
2022-08-26T13:12:23.722Z,24.10
2022-08-26T13:14:26.457Z,24.10
2022-08-26T13:16:29.389Z,24.20
2022-08-26T13:18:32.102Z,24.20
2022-08-26T13:20:34.873Z,24.20
2022-08-26T13:22:37.678Z,24.20
2022-08-26T13:24:41.769Z,24.30
2022-08-26T13:26:45.666Z,24.40
2022-08-26T13:29:01.173Z,24.30
2022-08-26T13:30:53.310Z,24.30
2022-08-26T13:32:57.115Z,24.20
2022-08-26T13:35:00.481Z,24.20
2022-08-26T13:37:05.386Z,24.20
2022-08-26T13:39:08.154Z,24.20
2022-08-26T13:41:10.766Z,24.20
2022-08-26T13:43:15.641Z,24.30
2022-08-26T13:45:18.534Z,24.40
2022-08-26T13:47:22.338Z,24.40
2022-08-26T13:49:24.879Z,24.50
2022-08-26T13:51:28.147Z,24.40
2022-08-26T13:53:30.782Z,24.40
2022-08-26T13:57:48.917Z,24.50
2022-08-26T13:59:53.274Z,24.40
2022-08-26T14:01:57.888Z,24.40
2022-08-26T14:04:02.074Z,24.30
2022-08-26T14:06:04.791Z,24.30
2022-08-26T14:10:22.790Z,24.40
2022-08-26T14:12:25.460Z,24.50
2022-08-26T14:14:28.183Z,24.50
2022-08-26T14:16:33.805Z,24.50
2022-08-26T14:18:42.042Z,24.60
2022-08-26T14:20:44.907Z,24.60
2022-08-26T14:23:03.426Z,24.60
2022-08-26T14:24:52.325Z,24.60
2022-08-26T14:26:54.991Z,24.50
2022-08-26T14:28:58.082Z,24.50
2022-08-26T14:31:00.812Z,24.50
2022-08-26T14:33:03.477Z,24.40
2022-08-26T14:35:07.105Z,24.30
2022-08-26T14:37:13.527Z,24.30
2022-08-26T14:39:14.358Z,24.30
2022-08-26T14:41:17.749Z,24.30
2022-08-26T14:43:21.208Z,24.30
2022-08-26T14:45:24.801Z,24.40
2022-08-26T14:47:27.609Z,24.40
2022-08-26T14:49:31.206Z,24.50
2022-08-26T14:51:33.942Z,24.50
2022-08-26T14:53:54.585Z,24.40
2022-08-26T14:55:57.855Z,24.30
2022-08-26T14:58:00.584Z,24.40
2022-08-26T15:00:03.966Z,24.40
2022-08-26T15:02:07.908Z,24.40
2022-08-26T15:04:10.565Z,24.40
2022-08-26T15:06:13.630Z,24.30
2022-08-26T15:08:16.294Z,24.40
2022-08-26T15:10:20.360Z,24.50
2022-08-26T15:12:22.918Z,24.60
2022-08-26T15:14:27.670Z,24.40
2022-08-26T15:16:30.272Z,24.40
2022-08-26T15:18:33.014Z,24.50
2022-08-26T15:20:35.798Z,24.50
2022-08-26T15:22:38.863Z,24.40
2022-08-26T15:24:41.543Z,24.40
2022-08-26T15:26:44.580Z,24.30
2022-08-26T15:28:47.475Z,24.40
2022-08-26T15:30:51.219Z,24.40
2022-08-26T15:32:53.967Z,24.40
2022-08-26T15:34:56.678Z,24.40
2022-08-26T15:36:59.410Z,24.40
2022-08-26T15:39:02.195Z,24.40
2022-08-26T15:41:05.739Z,24.30
2022-08-26T15:43:25.768Z,24.40
2022-08-26T15:47:27.973Z,24.30
2022-08-26T15:49:31.344Z,24.40
2022-08-26T15:51:34.986Z,24.40
2022-08-26T15:53:39.574Z,24.20
2022-08-26T15:55:42.315Z,24.10
2022-08-26T15:57:45.179Z,24.00
2022-08-26T15:59:48.484Z,24.00
2022-08-26T16:01:51.456Z,24.10
2022-08-26T16:03:56.110Z,24.10
2022-08-26T16:05:58.838Z,24.10
2022-08-26T16:08:03.051Z,24.10
2022-08-26T16:10:06.714Z,24.10
2022-08-26T16:12:09.515Z,24.00
2022-08-26T16:14:12.250Z,24.00
2022-08-26T16:16:15.089Z,24.00
2022-08-26T16:18:19.612Z,23.90
2022-08-26T16:20:25.555Z,23.90
2022-08-26T16:22:28.070Z,23.90
2022-08-26T16:24:31.447Z,23.80
2022-08-26T16:26:36.496Z,23.80
2022-08-26T16:28:39.374Z,23.70
2022-08-26T16:30:44.308Z,23.70
2022-08-26T16:32:47.397Z,23.70
2022-08-26T16:34:56.284Z,23.50
2022-08-26T16:36:55.561Z,23.50
2022-08-26T16:38:58.323Z,23.40
2022-08-26T16:41:01.026Z,23.40
2022-08-26T16:43:03.834Z,23.30
2022-08-26T16:45:07.956Z,23.30
2022-08-26T16:47:11.616Z,23.30
2022-08-26T16:49:14.300Z,23.20
2022-08-26T16:51:18.090Z,23.10
2022-08-26T16:53:20.982Z,23.10
2022-08-26T16:55:23.680Z,23.00
2022-08-26T16:57:26.326Z,23.00
2022-08-26T16:59:29.058Z,22.90
2022-08-26T17:01:31.746Z,22.90
2022-08-26T17:03:34.444Z,22.90
2022-08-26T17:05:37.505Z,22.90
2022-08-26T17:07:40.394Z,22.70
2022-08-26T17:09:43.204Z,22.70
2022-08-26T17:11:45.857Z,22.80
2022-08-26T17:13:48.703Z,22.60
2022-08-26T17:15:53.682Z,22.70
2022-08-26T17:17:58.342Z,22.60
2022-08-26T17:20:03.195Z,22.60
2022-08-26T17:22:07.295Z,22.60
2022-08-26T17:24:09.878Z,22.60
2022-08-26T17:26:13.240Z,22.50
2022-08-26T17:28:15.943Z,22.50
2022-08-26T17:30:19.144Z,22.50
2022-08-26T17:32:21.680Z,22.50
2022-08-26T17:34:24.364Z,22.40
2022-08-26T17:36:27.486Z,22.40
2022-08-26T17:38:31.791Z,22.40
2022-08-26T17:40:34.612Z,22.40
2022-08-26T17:42:37.435Z,22.40
2022-08-26T17:44:40.031Z,22.30
2022-08-26T17:46:42.868Z,22.30
2022-08-26T17:48:46.268Z,22.30
2022-08-26T17:50:49.641Z,22.30
2022-08-26T17:52:52.422Z,22.30
2022-08-26T17:57:10.816Z,22.30
2022-08-26T17:59:13.537Z,22.30
2022-08-26T18:01:16.304Z,22.30
2022-08-26T18:03:19.006Z,22.20
2022-08-26T18:05:22.215Z,22.30
2022-08-26T18:07:24.892Z,22.20
2022-08-26T18:09:29.134Z,22.20
2022-08-26T18:11:33.482Z,22.10
2022-08-26T18:13:36.724Z,22.10
2022-08-26T18:17:58.546Z,22.20
2022-08-26T18:20:02.042Z,22.10
2022-08-26T18:22:06.514Z,22.10
2022-08-26T18:24:13.811Z,22.00
2022-08-26T18:26:21.013Z,22.00
2022-08-26T18:28:23.898Z,21.90
2022-08-26T18:30:26.933Z,21.90
2022-08-26T18:32:29.665Z,21.90
2022-08-26T18:34:34.371Z,21.90
2022-08-26T18:36:37.471Z,21.90
2022-08-26T18:38:40.892Z,21.90
2022-08-26T18:40:45.918Z,21.90
2022-08-26T18:42:54.118Z,21.80
2022-08-26T18:44:55.475Z,21.80
2022-08-26T18:46:58.642Z,21.80
2022-08-26T18:49:01.762Z,21.80
2022-08-26T18:51:04.637Z,21.80
2022-08-26T18:53:08.059Z,21.70
2022-08-26T18:55:11.590Z,21.70
2022-08-26T18:57:14.956Z,21.70
2022-08-26T18:59:18.083Z,21.70
2022-08-26T19:01:25.432Z,21.70
2022-08-26T19:03:28.323Z,21.70
2022-08-26T19:05:32.045Z,21.70
2022-08-26T19:07:39.532Z,21.70
2022-08-26T19:09:41.424Z,21.60
2022-08-26T19:11:45.802Z,21.60
2022-08-26T19:13:49.854Z,21.60
2022-08-26T19:15:55.189Z,21.60
2022-08-26T19:17:58.197Z,21.50
2022-08-26T19:20:01.141Z,21.60
2022-08-26T19:22:04.483Z,21.50
2022-08-26T19:24:13.104Z,21.40
2022-08-26T19:26:16.863Z,21.40
2022-08-26T19:28:20.269Z,21.40
2022-08-26T19:30:23.440Z,21.40
2022-08-26T19:32:26.743Z,21.50
2022-08-26T19:34:31.265Z,21.50
2022-08-26T19:36:35.636Z,21.50
2022-08-26T19:38:39.310Z,21.40
2022-08-26T19:40:42.855Z,21.40
2022-08-26T19:42:46.241Z,21.50
2022-08-26T19:45:07.962Z,21.40
2022-08-26T19:47:16.303Z,21.40
2022-08-26T19:49:20.151Z,21.30
2022-08-26T19:51:25.210Z,21.30
2022-08-26T19:53:28.334Z,21.30
2022-08-26T19:55:32.780Z,21.30
2022-08-26T19:57:37.436Z,21.20
2022-08-26T19:59:41.094Z,21.10
2022-08-26T20:01:44.515Z,21.10
2022-08-26T20:03:49.175Z,21.10
2022-08-26T20:05:53.172Z,21.10
2022-08-26T20:07:57.281Z,21.00
2022-08-26T20:10:00.387Z,21.00
2022-08-26T20:12:05.879Z,21.00
2022-08-26T20:14:08.694Z,20.90
2022-08-26T20:16:12.480Z,20.90
2022-08-26T20:18:33.259Z,20.80
2022-08-26T20:21:05.102Z,20.90
2022-08-26T20:23:08.896Z,20.90
2022-08-26T20:25:12.806Z,20.90
2022-08-26T20:27:16.056Z,20.80
2022-08-26T20:29:19.834Z,20.80
2022-08-26T20:31:23.837Z,20.80
2022-08-26T20:33:27.688Z,20.80
2022-08-26T20:35:36.326Z,20.70
2022-08-26T20:37:40.693Z,20.80
2022-08-26T20:39:46.003Z,20.80
2022-08-26T20:41:54.968Z,20.70
2022-08-26T20:43:58.860Z,20.70
2022-08-26T20:46:02.600Z,20.70
2022-08-26T20:48:07.143Z,20.60
2022-08-26T20:50:09.882Z,20.60
2022-08-26T20:52:13.052Z,20.60
2022-08-26T20:54:15.635Z,20.60
2022-08-26T20:56:20.912Z,20.60
2022-08-26T20:58:24.118Z,20.60
2022-08-26T21:02:42.100Z,20.60
2022-08-26T21:04:44.888Z,20.50
2022-08-26T21:06:52.362Z,20.50
2022-08-26T21:08:52.686Z,20.50
2022-08-26T21:10:55.621Z,20.40
2022-08-26T21:12:59.213Z,20.40
2022-08-26T21:15:01.813Z,20.40
2022-08-26T21:17:04.704Z,20.40
2022-08-26T21:19:08.942Z,20.40
2022-08-26T21:21:11.585Z,20.40
2022-08-26T21:23:14.241Z,20.30
2022-08-26T21:25:17.131Z,20.30
2022-08-26T21:27:26.141Z,20.30
2022-08-26T21:29:24.290Z,20.30
2022-08-26T21:31:26.886Z,20.30
2022-08-26T21:33:29.445Z,20.30
2022-08-26T21:35:32.519Z,20.30
2022-08-26T21:37:35.283Z,20.20
2022-08-26T21:39:38.155Z,20.20
2022-08-26T21:41:43.137Z,20.20
2022-08-26T21:43:46.520Z,20.20
2022-08-26T21:45:49.099Z,20.20
2022-08-26T21:47:51.834Z,20.10
2022-08-26T21:49:54.612Z,20.10
2022-08-26T21:51:57.378Z,20.10
2022-08-26T21:54:00.936Z,20.10
2022-08-26T21:56:05.279Z,20.00
2022-08-26T21:58:08.114Z,20.00
2022-08-26T22:00:14.250Z,20.00
2022-08-26T22:02:17.005Z,20.00
2022-08-26T22:04:20.421Z,20.10
2022-08-26T22:06:24.313Z,20.10
2022-08-26T22:08:28.978Z,20.10
2022-08-26T22:12:47.222Z,20.00
2022-08-26T22:14:50.085Z,20.00
2022-08-26T22:16:53.396Z,20.00
2022-08-26T22:18:56.210Z,20.00
2022-08-26T22:20:59.843Z,19.90
2022-08-26T22:23:03.061Z,19.90
2022-08-26T22:25:06.657Z,19.90
2022-08-26T22:27:11.368Z,19.80
2022-08-26T22:29:45.262Z,19.90
2022-08-26T22:31:55.122Z,19.90
2022-08-26T22:34:01.482Z,19.80
2022-08-26T22:36:05.819Z,19.80
2022-08-26T22:38:10.436Z,19.70
2022-08-26T22:40:14.407Z,19.60
2022-08-26T22:42:18.542Z,19.70
2022-08-26T22:44:22.548Z,19.60
2022-08-26T22:46:26.473Z,19.60
2022-08-26T22:48:30.204Z,19.60
2022-08-26T22:50:33.624Z,19.60
2022-08-26T22:52:36.448Z,19.60
2022-08-26T22:54:40.125Z,19.50
2022-08-26T22:56:44.401Z,19.40
2022-08-26T22:58:47.225Z,19.40
2022-08-26T23:00:51.156Z,19.40
2022-08-26T23:02:56.453Z,19.30
2022-08-26T23:04:59.195Z,19.40
2022-08-26T23:07:03.394Z,19.30
2022-08-26T23:09:07.544Z,19.30
2022-08-26T23:11:10.859Z,19.20
2022-08-26T23:13:13.953Z,19.30
2022-08-26T23:15:16.551Z,19.20
2022-08-26T23:17:21.203Z,19.20
2022-08-26T23:19:24.161Z,19.10
2022-08-26T23:21:26.918Z,19.20
2022-08-26T23:23:29.612Z,19.10
2022-08-26T23:25:32.749Z,19.10
2022-08-26T23:27:36.152Z,19.20
2022-08-26T23:29:39.094Z,19.20
2022-08-26T23:31:42.266Z,19.10
2022-08-26T23:34:02.868Z,19.10
2022-08-26T23:36:07.186Z,19.10
2022-08-26T23:38:11.781Z,19.10
2022-08-26T23:40:17.663Z,19.10
2022-08-26T23:42:20.602Z,19.10
2022-08-26T23:44:24.914Z,19.10
2022-08-26T23:46:27.577Z,19.00
2022-08-26T23:48:30.255Z,19.00
2022-08-26T23:50:50.695Z,19.00
2022-08-26T23:53:05.430Z,19.00
2022-08-26T23:55:10.141Z,19.10
2022-08-26T23:57:12.830Z,19.00
2022-08-26T23:59:15.603Z,19.00
